createdAt,value
2018-07-24T00:01:06.143Z,101389.45
2018-07-24T00:03:34.131Z,101395.12
2018-07-24T00:06:01.713Z,101397.34
2018-07-24T00:08:29.413Z,101396.03
2018-07-24T00:10:57.529Z,101403.53
2018-07-24T00:13:25.181Z,101399.25
2018-07-24T00:15:52.813Z,101403.05
2018-07-24T00:18:20.601Z,101404.66
2018-07-24T00:20:48.225Z,101403.56
2018-07-24T00:23:15.812Z,101409.75
2018-07-24T00:25:43.973Z,101406.08
2018-07-24T00:28:11.559Z,101417.95
2018-07-24T00:30:39.193Z,101418.20
2018-07-24T00:33:22.247Z,101412.70
2018-07-24T00:35:49.877Z,101412.09
2018-07-24T00:38:17.445Z,101406.58
2018-07-24T00:40:45.216Z,101407.19
2018-07-24T00:43:12.765Z,101405.61
2018-07-24T00:45:40.409Z,101408.05
2018-07-24T00:48:08.654Z,101409.53
2018-07-24T00:50:36.325Z,101409.30
2018-07-24T00:53:18.838Z,101406.37
2018-07-24T00:55:46.528Z,101404.89
2018-07-24T00:58:14.189Z,101406.84
2018-07-24T01:00:42.279Z,101399.51
2018-07-24T01:03:09.905Z,101401.95
2018-07-24T01:05:37.572Z,101403.55
2018-07-24T01:08:05.716Z,101396.69
2018-07-24T01:10:33.301Z,101395.81
2018-07-24T01:13:00.935Z,101402.70
2018-07-24T01:15:28.811Z,101399.77
2018-07-24T01:17:56.734Z,101405.30
2018-07-24T01:20:24.507Z,101402.48
2018-07-24T01:22:52.527Z,101399.91
2018-07-24T01:25:20.146Z,101400.03
2018-07-24T01:27:48.027Z,101404.33
2018-07-24T01:30:15.944Z,101401.37
2018-07-24T01:32:43.562Z,101403.45
2018-07-24T01:35:11.267Z,101399.64
2018-07-24T01:37:39.358Z,101402.47
2018-07-24T01:40:06.995Z,101397.83
2018-07-24T01:42:34.585Z,101404.83
2018-07-24T01:45:02.873Z,101413.53
2018-07-24T01:47:30.612Z,101405.41
2018-07-24T01:49:58.216Z,101397.67
2018-07-24T01:52:26.303Z,101396.45
2018-07-24T01:55:08.731Z,101397.53
2018-07-24T01:57:36.819Z,101407.09
2018-07-24T02:00:05.048Z,101407.22
2018-07-24T02:02:32.690Z,101408.33
2018-07-24T02:05:00.818Z,101403.18
2018-07-24T02:07:28.442Z,101404.89
2018-07-24T02:09:56.106Z,101408.67
2018-07-24T02:12:24.043Z,101404.51
2018-07-24T02:14:51.683Z,101411.38
2018-07-24T02:17:19.274Z,101411.13
2018-07-24T02:19:47.435Z,101407.81
2018-07-24T02:22:15.029Z,101404.36
2018-07-24T02:24:42.764Z,101406.94
2018-07-24T02:27:10.738Z,101401.66
2018-07-24T02:29:38.449Z,101400.55
2018-07-24T02:32:36.747Z,101402.38
2018-07-24T02:35:04.785Z,101402.98
2018-07-24T02:37:32.430Z,101403.97
2018-07-24T02:40:00.284Z,101401.03
2018-07-24T02:42:27.982Z,101401.51
2018-07-24T02:44:55.589Z,101401.98
2018-07-24T02:47:23.461Z,101405.55
2018-07-24T02:49:51.162Z,101408.73
2018-07-24T02:52:18.795Z,101409.13
2018-07-24T02:54:46.651Z,101417.58
2018-07-24T02:57:14.499Z,101413.05
2018-07-24T02:59:42.094Z,101403.48
2018-07-24T03:02:10.051Z,101406.55
2018-07-24T03:04:37.750Z,101409.60
2018-07-24T03:07:05.399Z,101410.23
2018-07-24T03:09:33.565Z,101415.51
2018-07-24T03:12:01.415Z,101416.73
2018-07-24T03:14:29.059Z,101413.56
2018-07-24T03:16:56.928Z,101417.02
2018-07-24T03:19:24.585Z,101417.25
2018-07-24T03:21:52.207Z,101421.05
2018-07-24T03:24:19.864Z,101427.56
2018-07-24T03:26:47.833Z,101424.14
2018-07-24T03:29:15.466Z,101430.14
2018-07-24T03:31:43.442Z,101430.89
2018-07-24T03:34:11.287Z,101430.77
2018-07-24T03:36:38.918Z,101431.00
2018-07-24T03:39:08.881Z,101435.32
2018-07-24T03:41:36.772Z,101453.47
2018-07-24T03:44:04.071Z,101455.56
2018-07-24T03:46:31.826Z,101456.80
2018-07-24T03:48:59.709Z,101466.98
2018-07-24T03:51:27.405Z,101461.59
2018-07-24T03:53:55.187Z,101464.41
2018-07-24T03:56:22.931Z,101468.77
2018-07-24T03:58:50.529Z,101465.70
2018-07-24T04:01:18.352Z,101468.03
2018-07-24T04:03:46.104Z,101465.92
2018-07-24T04:06:13.743Z,101465.08
2018-07-24T04:08:41.497Z,101466.45
2018-07-24T04:11:09.279Z,101462.99
2018-07-24T04:13:36.965Z,101471.47
2018-07-24T04:16:04.784Z,101467.92
2018-07-24T04:18:40.720Z,101473.44
2018-07-24T04:21:08.693Z,101470.72
2018-07-24T04:23:36.407Z,101467.16
2018-07-24T04:26:04.080Z,101463.00
2018-07-24T04:28:31.856Z,101468.86
2018-07-24T04:30:59.800Z,101463.08
2018-07-24T04:33:27.612Z,101472.04
2018-07-24T04:35:55.527Z,101474.75
2018-07-24T04:38:23.298Z,101478.30
2018-07-24T04:40:50.889Z,101473.29
2018-07-24T04:43:18.704Z,101484.08
2018-07-24T04:45:46.478Z,101482.22
2018-07-24T04:48:14.151Z,101482.70
2018-07-24T04:50:41.898Z,101485.25
2018-07-24T04:53:09.796Z,101484.73
2018-07-24T04:55:37.398Z,101483.25
2018-07-24T04:58:05.379Z,101474.11
2018-07-24T05:00:33.458Z,101473.45
2018-07-24T05:03:02.048Z,101477.73
2018-07-24T05:05:29.839Z,101476.38
2018-07-24T05:07:57.645Z,101475.45
2018-07-24T05:10:25.244Z,101477.16
2018-07-24T05:12:53.169Z,101469.89
2018-07-24T05:15:21.007Z,101473.77
2018-07-24T05:17:48.644Z,101476.34
2018-07-24T05:20:16.425Z,101472.74
2018-07-24T05:22:44.272Z,101476.76
2018-07-24T05:25:11.948Z,101477.09
2018-07-24T05:27:39.658Z,101470.61
2018-07-24T05:30:07.559Z,101466.18
2018-07-24T05:32:35.195Z,101479.05
2018-07-24T05:35:03.157Z,101471.73
2018-07-24T05:37:31.011Z,101470.66
2018-07-24T05:39:58.611Z,101473.22
2018-07-24T05:42:26.407Z,101468.73
2018-07-24T05:44:54.211Z,101469.89
2018-07-24T05:47:21.852Z,101467.19
2018-07-24T05:49:49.781Z,101472.67
2018-07-24T05:52:17.537Z,101474.97
2018-07-24T05:54:45.292Z,101475.15
2018-07-24T05:57:13.062Z,101476.44
2018-07-24T05:59:40.965Z,101472.81
2018-07-24T06:02:08.630Z,101473.75
2018-07-24T06:04:36.723Z,101475.91
2018-07-24T06:07:04.767Z,101477.33
2018-07-24T06:09:32.591Z,101472.06
2018-07-24T06:12:00.416Z,101475.95
2018-07-24T06:14:28.226Z,101478.93
2018-07-24T06:16:55.981Z,101470.22
2018-07-24T06:19:23.706Z,101475.11
2018-07-24T06:21:51.687Z,101472.69
2018-07-24T06:24:19.388Z,101480.64
2018-07-24T06:26:47.247Z,101476.48
2018-07-24T06:29:15.251Z,101477.41
2018-07-24T06:31:42.890Z,101480.41
2018-07-24T06:34:10.616Z,101482.03
2018-07-24T06:36:38.701Z,101481.97
2018-07-24T06:39:11.647Z,101477.31
2018-07-24T06:41:39.754Z,101467.37
2018-07-24T06:44:07.665Z,101471.00
2018-07-24T06:46:35.293Z,101481.92
2018-07-24T06:49:03.385Z,101482.34
2018-07-24T06:51:31.127Z,101478.70
2018-07-24T06:53:58.975Z,101480.52
2018-07-24T06:56:26.775Z,101489.59
2018-07-24T06:58:54.432Z,101489.14
2018-07-24T07:01:22.077Z,101493.12
2018-07-24T07:03:50.013Z,101493.54
2018-07-24T07:06:17.650Z,101489.85
2018-07-24T07:08:45.320Z,101501.52
2018-07-24T07:11:13.193Z,101507.72
2018-07-24T07:13:40.804Z,101490.23
2018-07-24T07:16:08.494Z,101488.42
2018-07-24T07:18:36.502Z,101492.77
2018-07-24T07:21:04.229Z,101495.38
2018-07-24T07:23:31.867Z,101494.93
2018-07-24T07:26:00.049Z,101493.12
2018-07-24T07:28:27.909Z,101496.89
2018-07-24T07:30:55.513Z,101496.09
2018-07-24T07:33:23.523Z,101495.18
2018-07-24T07:35:51.157Z,101493.36
2018-07-24T07:38:18.981Z,101489.81
2018-07-24T07:40:46.957Z,101492.07
2018-07-24T07:43:14.560Z,101493.99
2018-07-24T07:45:42.217Z,101483.17
2018-07-24T07:48:10.068Z,101481.99
2018-07-24T07:50:38.313Z,101482.03
2018-07-24T07:53:06.788Z,101479.37
2018-07-24T07:55:35.377Z,101482.61
2018-07-24T07:58:03.842Z,101477.91
2018-07-24T08:00:32.381Z,101481.37
2018-07-24T08:03:00.908Z,101483.50
2018-07-24T08:05:29.460Z,101480.47
2018-07-24T08:07:58.069Z,101475.05
2018-07-24T08:10:26.018Z,101476.80
2018-07-24T08:12:53.688Z,101475.01
2018-07-24T08:15:21.540Z,101476.89
2018-07-24T08:17:49.337Z,101471.34
2018-07-24T08:20:16.914Z,101472.06
2018-07-24T08:22:44.813Z,101467.34
2018-07-24T08:25:12.619Z,101467.20
2018-07-24T08:27:40.366Z,101463.00
2018-07-24T08:30:08.259Z,101467.11
2018-07-24T08:32:36.136Z,101472.58
2018-07-24T08:35:03.770Z,101474.49
2018-07-24T08:37:31.510Z,101469.59
2018-07-24T08:39:59.871Z,101466.53
2018-07-24T08:42:27.620Z,101467.24
2018-07-24T08:44:55.432Z,101471.84
2018-07-24T08:47:23.227Z,101468.45
2018-07-24T08:49:50.860Z,101469.50
2018-07-24T08:52:18.541Z,101467.81
2018-07-24T08:54:46.677Z,101465.42
2018-07-24T08:57:14.217Z,101469.02
2018-07-24T08:59:41.919Z,101469.34
2018-07-24T09:02:09.585Z,101465.34
2018-07-24T09:04:37.225Z,101465.02
2018-07-24T09:07:05.183Z,101468.94
2018-07-24T09:09:33.093Z,101470.64
2018-07-24T09:12:00.751Z,101475.10
2018-07-24T09:14:28.536Z,101473.57
2018-07-24T09:16:56.430Z,101475.27
2018-07-24T09:19:24.063Z,101473.75
2018-07-24T09:21:51.856Z,101468.46
2018-07-24T09:24:19.607Z,101470.70
2018-07-24T09:26:47.163Z,101472.27
2018-07-24T09:29:15.013Z,101463.76
2018-07-24T09:31:42.760Z,101468.36
2018-07-24T09:34:10.364Z,101475.55
2018-07-24T09:36:38.042Z,101468.23
2018-07-24T09:39:08.257Z,101465.72
2018-07-24T09:41:36.071Z,101468.98
2018-07-24T09:44:03.912Z,101464.92
2018-07-24T09:46:31.679Z,101471.59
2018-07-24T09:48:59.350Z,101471.81
2018-07-24T09:51:27.114Z,101476.45
2018-07-24T09:53:54.893Z,101480.56
2018-07-24T09:56:22.530Z,101481.45
2018-07-24T09:58:50.555Z,101483.34
2018-07-24T10:01:23.789Z,101483.58
2018-07-24T10:03:51.628Z,101490.73
2018-07-24T10:06:19.274Z,101486.28
2018-07-24T10:08:46.898Z,101489.00
2018-07-24T10:11:14.881Z,101489.44
2018-07-24T10:13:42.569Z,101492.31
2018-07-24T10:16:10.337Z,101491.56
2018-07-24T10:18:38.472Z,101496.84
2018-07-24T10:21:06.120Z,101494.36
2018-07-24T10:23:33.712Z,101496.16
2018-07-24T10:26:01.623Z,101497.81
2018-07-24T10:28:29.287Z,101500.83
2018-07-24T10:30:56.984Z,101496.20
2018-07-24T10:33:24.806Z,101495.38
2018-07-24T10:35:52.418Z,101495.31
2018-07-24T10:38:20.048Z,101489.79
2018-07-24T10:40:47.829Z,101490.94
2018-07-24T10:43:15.650Z,101491.29
2018-07-24T10:45:43.215Z,101495.09
2018-07-24T10:48:11.120Z,101489.56
2018-07-24T10:50:38.767Z,101488.14
2018-07-24T10:53:06.871Z,101486.97
2018-07-24T10:55:34.869Z,101487.03
2018-07-24T10:58:02.584Z,101481.17
2018-07-24T11:00:30.149Z,101483.73
2018-07-24T11:02:58.117Z,101481.49
2018-07-24T11:05:56.374Z,101484.97
2018-07-24T11:08:24.369Z,101481.16
2018-07-24T11:10:52.009Z,101474.37
2018-07-24T11:13:19.657Z,101482.60
2018-07-24T11:15:47.533Z,101479.29
2018-07-24T11:18:15.276Z,101481.97
2018-07-24T11:20:42.886Z,101479.66
2018-07-24T11:23:11.165Z,101477.20
2018-07-24T11:25:38.786Z,101468.36
2018-07-24T11:28:06.414Z,101473.39
2018-07-24T11:30:34.377Z,101474.14
2018-07-24T11:33:02.453Z,101473.06
2018-07-24T11:35:30.074Z,101471.60
2018-07-24T11:37:58.037Z,101482.30
2018-07-24T11:40:25.723Z,101479.62
2018-07-24T11:42:53.354Z,101479.56
2018-07-24T11:45:21.581Z,101489.75
2018-07-24T11:47:49.185Z,101479.49
2018-07-24T11:50:16.765Z,101482.11
2018-07-24T11:52:44.831Z,101480.01
2018-07-24T11:55:12.457Z,101479.84
2018-07-24T11:57:40.110Z,101474.16
2018-07-24T12:00:08.164Z,101471.90
2018-07-24T12:02:35.829Z,101469.44
2018-07-24T12:05:03.618Z,101473.66
2018-07-24T12:07:31.746Z,101475.22
2018-07-24T12:09:59.466Z,101471.80
2018-07-24T12:12:27.122Z,101472.63
2018-07-24T12:14:55.203Z,101472.82
2018-07-24T12:17:22.844Z,101472.63
2018-07-24T12:19:50.394Z,101473.97
2018-07-24T12:22:18.335Z,101476.91
2018-07-24T12:24:45.898Z,101480.17
2018-07-24T12:27:13.602Z,101471.20
2018-07-24T12:29:41.603Z,101480.20
2018-07-24T12:32:09.182Z,101480.39
2018-07-24T12:34:36.793Z,101475.76
2018-07-24T12:37:04.888Z,101476.75
2018-07-24T12:39:32.537Z,101476.27
2018-07-24T12:42:00.163Z,101477.52
2018-07-24T12:44:28.294Z,101479.59
2018-07-24T12:46:56.060Z,101479.27
2018-07-24T12:49:23.742Z,101484.09
2018-07-24T12:51:51.748Z,101481.02
2018-07-24T12:54:19.407Z,101476.91
2018-07-24T12:56:47.010Z,101478.66
2018-07-24T12:59:14.885Z,101485.70
2018-07-24T13:01:42.473Z,101479.06
2018-07-24T13:04:10.266Z,101483.61
2018-07-24T13:06:38.236Z,101484.31
2018-07-24T13:09:07.823Z,101474.70
2018-07-24T13:11:35.579Z,101474.70
2018-07-24T13:14:03.627Z,101485.55
2018-07-24T13:16:31.247Z,101481.33
2018-07-24T13:18:58.922Z,101483.63
2018-07-24T13:21:26.935Z,101489.02
2018-07-24T13:23:54.538Z,101484.61
2018-07-24T13:26:22.155Z,101491.94
2018-07-24T13:28:49.925Z,101483.14
2018-07-24T13:31:17.572Z,101488.05
2018-07-24T13:33:45.221Z,101487.60
2018-07-24T13:36:13.229Z,101486.94
2018-07-24T13:38:40.876Z,101495.39
2018-07-24T13:41:08.453Z,101496.30
2018-07-24T13:43:36.591Z,101500.12
2018-07-24T13:46:19.165Z,101490.61
2018-07-24T13:48:47.529Z,101487.40
2018-07-24T13:51:15.137Z,101494.97
2018-07-24T13:53:42.705Z,101491.25
2018-07-24T13:56:10.660Z,101485.08
2018-07-24T13:58:38.268Z,101484.90
2018-07-24T14:01:06.041Z,101488.53
2018-07-24T14:03:33.933Z,101480.52
2018-07-24T14:06:01.611Z,101488.77
2018-07-24T14:08:29.293Z,101487.73
2018-07-24T14:10:57.450Z,101480.23
2018-07-24T14:13:25.103Z,101476.98
2018-07-24T14:15:52.727Z,101476.16
2018-07-24T14:18:20.717Z,101476.66
2018-07-24T14:20:48.356Z,101481.63
2018-07-24T14:23:22.718Z,101478.72
2018-07-24T14:25:51.075Z,101484.00
2018-07-24T14:28:18.699Z,101482.86
2018-07-24T14:30:46.370Z,101479.61
2018-07-24T14:33:14.171Z,101479.63
2018-07-24T14:35:41.835Z,101484.73
2018-07-24T14:38:09.434Z,101484.55
2018-07-24T14:40:37.296Z,101482.16
2018-07-24T14:43:04.896Z,101484.22
2018-07-24T14:45:32.560Z,101488.01
2018-07-24T14:48:00.501Z,101495.17
2018-07-24T14:50:28.383Z,101496.38
2018-07-24T14:52:56.869Z,101491.23
2018-07-24T14:55:24.683Z,101487.47
2018-07-24T14:57:52.592Z,101488.48
2018-07-24T15:00:20.213Z,101490.88
2018-07-24T15:02:48.314Z,101487.13
2018-07-24T15:05:15.904Z,101485.43
2018-07-24T15:07:43.527Z,101489.86
2018-07-24T15:10:11.488Z,101485.77
2018-07-24T15:12:39.035Z,101489.55
2018-07-24T15:15:06.753Z,101491.58
2018-07-24T15:17:34.674Z,101490.74
2018-07-24T15:20:02.276Z,101496.21
2018-07-24T15:22:29.952Z,101495.67
2018-07-24T15:24:58.050Z,101496.04
2018-07-24T15:27:25.738Z,101498.77
2018-07-24T15:29:53.418Z,101495.87
2018-07-24T15:32:21.224Z,101494.67
2018-07-24T15:34:48.854Z,101492.78
2018-07-24T15:37:16.959Z,101495.69
2018-07-24T15:39:44.991Z,101497.73
2018-07-24T15:42:12.646Z,101495.87
2018-07-24T15:44:40.228Z,101491.95
2018-07-24T15:47:08.203Z,101482.70
2018-07-24T15:49:35.785Z,101495.70
2018-07-24T15:52:03.534Z,101503.03
2018-07-24T15:54:31.578Z,101494.83
2018-07-24T15:56:59.161Z,101494.13
2018-07-24T15:59:26.780Z,101490.02
2018-07-24T16:01:54.728Z,101498.26
2018-07-24T16:04:22.344Z,101488.81
2018-07-24T16:06:49.957Z,101497.19
2018-07-24T16:09:17.762Z,101494.27
2018-07-24T16:11:45.385Z,101491.03
2018-07-24T16:14:12.921Z,101492.91
2018-07-24T16:16:40.938Z,101489.15
2018-07-24T16:19:08.577Z,101493.25
2018-07-24T16:21:36.213Z,101490.87
2018-07-24T16:24:04.078Z,101478.58
2018-07-24T16:26:31.693Z,101491.92
2018-07-24T16:28:59.387Z,101484.04
2018-07-24T16:31:27.456Z,101489.86
2018-07-24T16:33:55.126Z,101483.39
2018-07-24T16:36:22.679Z,101490.57
2018-07-24T16:38:50.462Z,101486.12
2018-07-24T16:41:18.031Z,101496.20
2018-07-24T16:43:45.655Z,101489.20
2018-07-24T16:46:13.579Z,101481.34
2018-07-24T16:48:41.188Z,101479.13
2018-07-24T16:51:08.913Z,101489.91
2018-07-24T16:53:36.706Z,101485.44
2018-07-24T16:56:04.381Z,101484.78
2018-07-24T16:58:32.082Z,101479.44
2018-07-24T17:00:59.971Z,101481.66
2018-07-24T17:03:27.644Z,101485.73
2018-07-24T17:05:55.253Z,101466.42
2018-07-24T17:08:23.499Z,101467.63
2018-07-24T17:10:52.079Z,101474.63
2018-07-24T17:13:19.706Z,101474.27
2018-07-24T17:15:47.493Z,101473.23
2018-07-24T17:18:15.142Z,101463.84
2018-07-24T17:20:42.719Z,101470.67
2018-07-24T17:23:10.888Z,101465.35
2018-07-24T17:25:38.584Z,101467.59
2018-07-24T17:28:06.243Z,101471.15
2018-07-24T17:30:34.080Z,101463.63
2018-07-24T17:33:01.713Z,101461.23
2018-07-24T17:35:29.383Z,101465.86
2018-07-24T17:37:57.385Z,101465.66
2018-07-24T17:40:24.997Z,101462.23
2018-07-24T17:42:52.714Z,101461.16
2018-07-24T17:45:20.693Z,101458.44
2018-07-24T17:47:48.311Z,101463.23
2018-07-24T17:50:15.955Z,101473.78
2018-07-24T17:52:44.065Z,101464.39
2018-07-24T17:55:11.737Z,101466.12
2018-07-24T17:57:39.423Z,101469.69
2018-07-24T18:00:07.223Z,101467.13
2018-07-24T18:02:34.873Z,101471.38
2018-07-24T18:05:02.532Z,101473.61
2018-07-24T18:07:30.617Z,101469.31
2018-07-24T18:09:58.319Z,101470.52
2018-07-24T18:12:25.883Z,101469.31
2018-07-24T18:14:53.801Z,101469.98
2018-07-24T18:17:21.386Z,101465.18
2018-07-24T18:19:48.999Z,101466.17
2018-07-24T18:22:16.759Z,101466.66
2018-07-24T18:24:44.846Z,101472.61
2018-07-24T18:27:12.528Z,101469.88
2018-07-24T18:29:40.447Z,101469.34
2018-07-24T18:32:08.075Z,101472.05
2018-07-24T18:34:35.702Z,101477.34
2018-07-24T18:37:03.552Z,101476.46
2018-07-24T18:39:31.206Z,101479.15
2018-07-24T18:41:58.805Z,101475.67
2018-07-24T18:44:26.686Z,101471.20
2018-07-24T18:46:54.413Z,101474.94
2018-07-24T18:49:22.062Z,101472.69
2018-07-24T18:51:49.858Z,101476.95
2018-07-24T18:54:17.473Z,101477.94
2018-07-24T18:56:45.277Z,101474.54
2018-07-24T18:59:13.145Z,101472.13
2018-07-24T19:01:40.786Z,101464.77
2018-07-24T19:04:08.416Z,101468.81
2018-07-24T19:06:36.470Z,101465.91
2018-07-24T19:09:06.593Z,101474.41
2018-07-24T19:11:34.216Z,101478.27
2018-07-24T19:14:02.198Z,101472.45
2018-07-24T19:16:29.808Z,101477.52
2018-07-24T19:18:57.417Z,101478.86
2018-07-24T19:21:25.218Z,101481.34
2018-07-24T19:23:52.847Z,101477.20
2018-07-24T19:26:20.500Z,101484.45
2018-07-24T19:28:48.616Z,101474.73
2018-07-24T19:31:16.302Z,101482.20
2018-07-24T19:33:43.918Z,101485.91
2018-07-24T19:36:11.992Z,101494.71
2018-07-24T19:38:39.541Z,101506.41
2018-07-24T19:41:07.120Z,101498.64
2018-07-24T19:43:34.842Z,101499.08
2018-07-24T19:46:02.569Z,101499.38
2018-07-24T19:48:30.147Z,101495.95
2018-07-24T19:50:58.000Z,101493.91
2018-07-24T19:53:25.605Z,101497.77
2018-07-24T19:55:53.279Z,101492.14
2018-07-24T19:58:21.525Z,101498.23
2018-07-24T20:00:49.144Z,101495.66
2018-07-24T20:03:16.740Z,101500.05
2018-07-24T20:05:44.701Z,101501.87
2018-07-24T20:08:12.281Z,101505.39
2018-07-24T20:10:39.892Z,101505.69
2018-07-24T20:13:07.740Z,101506.37
2018-07-24T20:15:35.334Z,101508.84
2018-07-24T20:18:02.964Z,101509.14
2018-07-24T20:20:30.732Z,101509.59
2018-07-24T20:22:58.521Z,101504.30
2018-07-24T20:25:26.034Z,101508.04
2018-07-24T20:27:54.034Z,101499.02
2018-07-24T20:30:21.632Z,101499.54
2018-07-24T20:32:49.336Z,101499.02
2018-07-24T20:35:17.306Z,101497.66
2018-07-24T20:37:44.974Z,101501.39
2018-07-24T20:40:12.570Z,101500.52
2018-07-24T20:42:40.561Z,101496.59
2018-07-24T20:45:08.183Z,101497.23
2018-07-24T20:47:35.846Z,101494.81
2018-07-24T20:50:04.115Z,101496.48
2018-07-24T20:52:31.775Z,101502.94
2018-07-24T20:54:59.466Z,101492.70
2018-07-24T20:57:27.377Z,101492.02
2018-07-24T20:59:55.217Z,101496.73
2018-07-24T21:02:22.849Z,101501.61
2018-07-24T21:04:50.790Z,101496.47
2018-07-24T21:07:18.589Z,101502.20
2018-07-24T21:09:46.152Z,101498.95
2018-07-24T21:12:13.904Z,101499.10
2018-07-24T21:14:41.559Z,101496.65
2018-07-24T21:17:09.185Z,101494.75
2018-07-24T21:19:37.183Z,101504.76
2018-07-24T21:22:04.824Z,101511.22
2018-07-24T21:24:32.525Z,101510.00
2018-07-24T21:27:00.380Z,101516.42
2018-07-24T21:29:27.917Z,101513.36
2018-07-24T21:31:55.537Z,101512.15
2018-07-24T21:34:23.513Z,101511.28
2018-07-24T21:36:51.066Z,101518.75
2018-07-24T21:39:18.717Z,101516.33
2018-07-24T21:41:46.626Z,101519.19
2018-07-24T21:44:14.219Z,101524.77
2018-07-24T21:46:41.912Z,101526.77
2018-07-24T21:49:09.894Z,101520.47
2018-07-24T21:51:40.427Z,101515.55
2018-07-24T21:54:08.603Z,101510.09
2018-07-24T21:56:37.231Z,101519.78
2018-07-24T21:59:05.706Z,101519.92
2018-07-24T22:01:33.629Z,101522.64
2018-07-24T22:04:02.085Z,101525.85
2018-07-24T22:06:29.864Z,101529.55
2018-07-24T22:08:57.685Z,101528.83
2018-07-24T22:11:26.077Z,101521.69
2018-07-24T22:13:54.564Z,101531.84
2018-07-24T22:16:23.017Z,101527.19
2018-07-24T22:18:51.745Z,101529.03
2018-07-24T22:21:20.118Z,101529.18
2018-07-24T22:23:48.540Z,101526.75
2018-07-24T22:26:17.128Z,101530.98
2018-07-24T22:28:45.321Z,101532.48
2018-07-24T22:31:13.050Z,101528.35
2018-07-24T22:33:41.146Z,101524.91
2018-07-24T22:36:08.792Z,101529.66
2018-07-24T22:38:36.346Z,101529.94
2018-07-24T22:41:04.251Z,101528.44
2018-07-24T22:43:31.850Z,101534.36
2018-07-24T22:45:59.473Z,101528.59
2018-07-24T22:48:27.466Z,101527.23
2018-07-24T22:50:55.097Z,101534.02
2018-07-24T22:53:22.735Z,101533.15
2018-07-24T22:55:50.737Z,101533.30
2018-07-24T22:58:18.334Z,101532.42
2018-07-24T23:00:45.951Z,101533.92
2018-07-24T23:03:14.424Z,101531.59
2018-07-24T23:05:41.999Z,101533.23
2018-07-24T23:08:09.610Z,101532.86
2018-07-24T23:10:37.574Z,101537.22
2018-07-24T23:15:32.452Z,101536.44
2018-07-24T23:18:00.481Z,101542.50
2018-07-24T23:20:28.285Z,101538.71
2018-07-24T23:22:56.034Z,101541.57
2018-07-24T23:25:24.108Z,101540.88
2018-07-24T23:27:51.760Z,101542.00
2018-07-24T23:30:19.518Z,101546.22
2018-07-24T23:32:47.413Z,101547.02
2018-07-24T23:35:15.047Z,101543.23
2018-07-24T23:37:42.705Z,101541.14
2018-07-24T23:40:10.518Z,101544.14
2018-07-24T23:42:38.132Z,101539.14
2018-07-24T23:45:05.869Z,101540.64
2018-07-24T23:47:33.868Z,101539.88
2018-07-24T23:50:01.494Z,101537.30
2018-07-24T23:52:29.122Z,101533.03
2018-07-24T23:54:57.128Z,101530.45
2018-07-24T23:57:24.824Z,101540.09
2018-07-24T23:59:52.376Z,101533.59
